Decoded Metar for LFML (MARSEILLE in FRANCE) (IATA:MRS) | Meteo·Mobile Aviation Weather
aviador You're here:

LFML Decoded Metar

MARSEILLE in FRANCE
Report Time2018-08-21 15:30:00
UTC Time2018-08-21 16:05:59
Flight Rules vfr VFR
Wind200° at 06 kt
W.Decomp.*RWY 13: 2.2 kt HW 5.6 kt RCW
W.Rank200° ranks 26
Current wind is below 200° avg. (6.4)
Visibility9999 m
Phenomena:Thuderstorm Rain
Clouds:Scattered 020 Hf
Expected CloudBase > 8,000 ft AGL from Temp-Dew spread
Ceiling4,000 ft
Temp33°C (ISA +18)
Dew Point13°C (30% RH)
Heat Index32.0°C
AAT31.8°C
QNH1014 hPa
Density Alt2,365 ft
Elevation118 ft
Report Wrong Elevation
Raw Report
LFML 211530Z AUTO 20006KT 170V230 CAVOK 33/13 Q1014 TEMPO
VRB15G25KT TSRA SCT020 BKN040CB=

Extra information for LFML:More info

Metar Taf Metar & Taf Last 4 Metars F.Rules Stats Wind Profile Meteogram Temp Stats Airport Information Weather charts Add Link Nearby VenuesMetar ALERT Operation Metar Decoded Social comments